createdAt,value
2022-09-20T00:01:07.757Z,0.17
2022-09-20T00:03:36.979Z,0.10
2022-09-20T00:06:04.641Z,0.20
2022-09-20T00:08:31.653Z,0.10
2022-09-20T00:11:02.843Z,0.10
2022-09-20T00:13:29.980Z,0.20
2022-09-20T00:15:56.962Z,0.10
2022-09-20T00:18:23.968Z,0.15
2022-09-20T00:20:50.992Z,0.20
2022-09-20T00:23:18.106Z,0.20
2022-09-20T00:25:45.167Z,0.10
2022-09-20T00:28:12.084Z,0.10
2022-09-20T00:30:39.640Z,0.10
2022-09-20T00:33:06.531Z,0.22
2022-09-20T00:35:33.526Z,0.20
2022-09-20T00:38:00.561Z,0.30
2022-09-20T00:40:27.518Z,0.10
2022-09-20T00:42:54.443Z,0.13
2022-09-20T00:45:25.775Z,0.10
2022-09-20T00:48:29.138Z,0.20
2022-09-20T00:51:02.083Z,0.20
2022-09-20T00:53:31.461Z,0.20
2022-09-20T00:56:06.422Z,0.10
2022-09-20T00:58:35.039Z,0.10
2022-09-20T01:01:02.050Z,0.20
2022-09-20T01:03:31.334Z,0.30
2022-09-20T01:05:58.967Z,0.32
2022-09-20T01:08:25.924Z,0.20
2022-09-20T01:10:53.043Z,0.22
2022-09-20T01:13:19.976Z,0.30
2022-09-20T01:15:46.835Z,0.30
2022-09-20T01:18:13.739Z,0.47
2022-09-20T01:20:42.111Z,0.20
2022-09-20T01:23:16.951Z,0.20
2022-09-20T01:26:02.389Z,0.28
2022-09-20T01:28:29.416Z,0.20
2022-09-20T01:31:02.419Z,0.25
2022-09-20T01:33:56.054Z,0.20
2022-09-20T01:36:31.622Z,0.10
2022-09-20T01:39:27.796Z,0.28
2022-09-20T01:42:02.676Z,0.28
2022-09-20T01:44:44.676Z,0.25
2022-09-20T01:47:16.359Z,0.20
2022-09-20T01:49:56.014Z,0.50
2022-09-20T01:52:41.349Z,0.47
2022-09-20T01:55:08.221Z,0.30
2022-09-20T01:58:13.812Z,0.20
2022-09-20T02:00:52.510Z,0.20
2022-09-20T02:03:48.990Z,0.40
2022-09-20T02:06:24.583Z,0.30
2022-09-20T02:09:16.433Z,0.40
2022-09-20T02:12:08.152Z,0.20
2022-09-20T02:14:43.642Z,0.40
2022-09-20T02:17:49.600Z,0.22
2022-09-20T02:20:36.811Z,0.30
2022-09-20T02:23:16.287Z,0.20
2022-09-20T02:26:07.877Z,0.32
2022-09-20T02:28:51.722Z,0.35
2022-09-20T02:31:55.653Z,0.25
2022-09-20T02:34:43.635Z,0.40
2022-09-20T02:37:34.034Z,0.38
2022-09-20T02:40:31.307Z,0.30
2022-09-20T02:43:01.854Z,0.22
2022-09-20T02:45:49.625Z,0.20
2022-09-20T02:48:18.065Z,0.20
2022-09-20T02:51:04.308Z,0.30
2022-09-20T02:53:48.479Z,0.20
2022-09-20T02:56:38.146Z,0.40
2022-09-20T02:59:12.569Z,0.30
2022-09-20T03:02:20.238Z,0.25
2022-09-20T03:05:02.167Z,0.30
2022-09-20T03:07:53.263Z,0.20
2022-09-20T03:10:43.502Z,0.32
2022-09-20T03:13:41.430Z,0.30
2022-09-20T03:16:39.607Z,0.30
2022-09-20T03:19:19.521Z,0.20
2022-09-20T03:22:25.375Z,0.30
2022-09-20T03:25:01.372Z,0.30
2022-09-20T03:27:33.003Z,0.30
2022-09-20T03:30:24.130Z,0.20
2022-09-20T03:33:15.914Z,0.20
2022-09-20T03:36:18.610Z,0.40
2022-09-20T03:39:23.586Z,0.40
2022-09-20T03:42:02.683Z,0.30
2022-09-20T03:44:29.597Z,0.43
2022-09-20T03:47:27.264Z,0.40
2022-09-20T03:50:22.306Z,0.30
2022-09-20T03:53:30.101Z,0.20
2022-09-20T04:17:39.404Z,0.45
2022-09-20T04:20:13.741Z,0.20
2022-09-20T04:22:40.754Z,0.20
2022-09-20T04:25:16.723Z,0.40
2022-09-20T04:27:52.818Z,0.47
2022-09-20T04:30:27.721Z,0.22
2022-09-20T04:33:03.869Z,0.30
2022-09-20T04:36:11.074Z,0.22
2022-09-20T04:38:38.405Z,0.20
2022-09-20T04:41:32.430Z,0.30
2022-09-20T04:44:30.559Z,0.30
2022-09-20T04:47:18.425Z,0.45
2022-09-20T04:50:13.230Z,0.25
2022-09-20T04:53:05.022Z,0.30
2022-09-20T04:55:55.635Z,0.30
2022-09-20T04:58:44.183Z,0.25
2022-09-20T05:01:33.086Z,0.20
2022-09-20T05:04:32.707Z,0.10
2022-09-20T05:07:22.576Z,0.20
2022-09-20T05:09:52.094Z,0.30
2022-09-20T05:12:38.054Z,0.30
2022-09-20T05:15:30.666Z,0.30
2022-09-20T05:18:10.783Z,0.30
2022-09-20T05:20:48.360Z,0.32
2022-09-20T05:23:35.571Z,0.20
2022-09-20T05:26:29.514Z,0.30
2022-09-20T05:28:58.939Z,0.73
2022-09-20T05:31:38.206Z,0.20
2022-09-20T05:34:17.948Z,0.30
2022-09-20T05:37:02.362Z,0.30
2022-09-20T05:39:42.579Z,0.13
2022-09-20T05:42:37.427Z,0.40
2022-09-20T05:45:20.004Z,0.52
2022-09-20T05:47:55.518Z,0.40
2022-09-20T05:50:51.818Z,0.50
2022-09-20T05:54:05.219Z,0.50
2022-09-20T05:56:45.509Z,0.30
2022-09-20T05:59:49.695Z,0.45
2022-09-20T06:02:25.458Z,1.30
2022-09-20T06:05:12.374Z,1.45
2022-09-20T06:07:57.865Z,0.75
2022-09-20T06:10:43.569Z,0.63
2022-09-20T06:13:21.986Z,0.52
2022-09-20T06:15:58.296Z,0.85
2022-09-20T06:18:34.567Z,0.85
2022-09-20T06:21:16.950Z,0.70
2022-09-20T06:23:44.200Z,1.00
2022-09-20T06:26:19.733Z,0.52
2022-09-20T06:28:58.267Z,0.93
2022-09-20T06:31:26.521Z,0.38
2022-09-20T06:34:09.176Z,0.60
2022-09-20T06:36:59.119Z,1.88
2022-09-20T06:40:07.079Z,0.95
2022-09-20T06:42:34.152Z,0.50
2022-09-20T06:45:01.229Z,0.52
2022-09-20T06:47:28.228Z,0.50
2022-09-20T06:49:55.576Z,0.30
2022-09-20T06:52:23.173Z,0.30
2022-09-20T06:54:55.188Z,0.65
2022-09-20T06:57:40.248Z,0.57
2022-09-20T07:00:11.142Z,0.50
2022-09-20T07:02:38.486Z,0.80
2022-09-20T07:05:07.525Z,1.00
2022-09-20T07:07:34.420Z,1.15
2022-09-20T07:10:01.353Z,0.68
2022-09-20T07:12:29.370Z,0.60
2022-09-20T07:14:56.355Z,0.90
2022-09-20T07:17:23.339Z,0.32
2022-09-20T07:19:50.331Z,0.75
2022-09-20T07:22:17.277Z,0.40
2022-09-20T07:24:45.159Z,0.32
2022-09-20T07:27:12.362Z,0.73
2022-09-20T07:29:41.080Z,0.55
2022-09-20T07:32:08.440Z,0.82
2022-09-20T07:34:35.593Z,0.38
2022-09-20T07:37:03.262Z,1.25
2022-09-20T07:39:30.261Z,1.48
2022-09-20T07:41:57.566Z,0.95
2022-09-20T07:44:24.932Z,0.60
2022-09-20T07:46:52.657Z,0.88
2022-09-20T07:49:19.926Z,0.50
2022-09-20T07:51:47.077Z,0.50
2022-09-20T07:54:14.170Z,1.10
2022-09-20T07:56:42.255Z,1.52
2022-09-20T07:59:10.280Z,1.10
2022-09-20T08:01:38.889Z,0.82
2022-09-20T08:04:06.697Z,0.80
2022-09-20T08:06:37.962Z,2.67
2022-09-20T08:09:10.194Z,0.90
2022-09-20T08:11:39.666Z,1.15
2022-09-20T08:14:09.233Z,1.25
2022-09-20T08:16:39.543Z,1.67
2022-09-20T08:19:06.715Z,0.95
2022-09-20T08:21:34.376Z,1.25
2022-09-20T08:24:01.510Z,1.23
2022-09-20T08:26:29.233Z,0.65
2022-09-20T08:28:57.423Z,0.70
2022-09-20T08:31:36.850Z,0.40
2022-09-20T08:34:06.553Z,0.63
2022-09-20T08:36:36.695Z,0.50
2022-09-20T08:42:13.002Z,1.30
2022-09-20T08:44:58.532Z,0.77
2022-09-20T08:47:48.713Z,0.30
2022-09-20T08:50:18.341Z,0.30
2022-09-20T08:52:47.753Z,0.40
2022-09-20T08:55:28.020Z,0.22
2022-09-20T08:57:56.677Z,0.40
2022-09-20T09:00:30.600Z,0.35
2022-09-20T09:02:59.394Z,0.40
2022-09-20T09:05:33.921Z,0.60
2022-09-20T09:08:05.021Z,0.38
2022-09-20T09:10:42.542Z,0.22
2022-09-20T09:13:37.558Z,0.65
2022-09-20T09:16:13.192Z,0.13
2022-09-20T09:18:41.702Z,0.30
2022-09-20T09:21:12.166Z,0.20
2022-09-20T09:23:41.441Z,0.10
2022-09-20T09:26:22.428Z,0.17
2022-09-20T09:29:11.512Z,0.10
2022-09-20T09:31:39.704Z,0.15
2022-09-20T09:34:30.339Z,0.10
2022-09-20T09:36:58.675Z,0.00
2022-09-20T09:39:28.409Z,0.00
2022-09-20T09:41:55.566Z,0.00
2022-09-20T09:44:24.583Z,0.00
2022-09-20T09:46:53.438Z,0.00
2022-09-20T09:49:21.510Z,0.00
2022-09-20T09:52:16.452Z,0.00
2022-09-20T09:54:47.236Z,0.00
2022-09-20T09:57:33.839Z,0.00
2022-09-20T10:00:18.526Z,0.00
2022-09-20T10:03:24.407Z,0.00
2022-09-20T10:05:54.448Z,0.00
2022-09-20T10:08:44.464Z,0.03
2022-09-20T10:11:24.328Z,0.00
2022-09-20T10:14:19.268Z,0.00
2022-09-20T10:16:58.186Z,0.00
2022-09-20T10:19:46.359Z,0.00
2022-09-20T10:22:22.422Z,0.00
2022-09-20T10:25:18.351Z,0.00
2022-09-20T10:27:54.145Z,0.00
2022-09-20T10:30:25.743Z,0.00
2022-09-20T10:32:52.683Z,0.00
2022-09-20T10:35:47.982Z,0.00
2022-09-20T10:38:20.022Z,0.00
2022-09-20T10:41:24.543Z,0.00
2022-09-20T10:44:05.526Z,0.00
2022-09-20T10:47:04.051Z,0.00
2022-09-20T10:49:52.938Z,0.00
2022-09-20T10:52:32.557Z,0.00
2022-09-20T10:55:20.343Z,0.00
2022-09-20T10:58:15.223Z,0.00
2022-09-20T11:00:54.347Z,0.00
2022-09-20T11:04:02.024Z,0.00
2022-09-20T11:06:36.247Z,0.00
2022-09-20T11:09:03.203Z,0.00
2022-09-20T11:11:40.362Z,0.00
2022-09-20T11:14:16.340Z,0.00
2022-09-20T11:19:38.723Z,0.00
2022-09-20T11:22:23.988Z,0.00
2022-09-20T11:24:51.966Z,0.00
2022-09-20T11:27:39.128Z,0.00
2022-09-20T11:30:16.039Z,0.00
2022-09-20T11:32:55.248Z,0.00
2022-09-20T11:35:33.496Z,0.00
2022-09-20T11:38:24.882Z,0.08
2022-09-20T11:41:02.550Z,0.00
2022-09-20T11:43:30.254Z,0.00
2022-09-20T11:46:04.506Z,0.00
2022-09-20T11:48:59.686Z,0.00
2022-09-20T11:51:36.440Z,0.00
2022-09-20T11:54:29.066Z,0.00
2022-09-20T11:56:59.974Z,0.00
2022-09-20T11:59:38.027Z,0.00
2022-09-20T12:02:27.085Z,0.00
2022-09-20T12:04:54.444Z,0.00
2022-09-20T12:07:36.444Z,0.00
2022-09-20T12:10:08.326Z,0.00
2022-09-20T12:12:46.989Z,0.30
2022-09-20T12:15:40.375Z,0.00
2022-09-20T12:18:27.841Z,0.00
2022-09-20T12:20:59.754Z,0.00
2022-09-20T12:23:40.276Z,0.00
2022-09-20T12:26:13.436Z,0.00
2022-09-20T12:28:42.060Z,0.00
2022-09-20T12:31:32.100Z,0.05
2022-09-20T12:34:03.078Z,0.00
2022-09-20T12:36:32.350Z,0.00
2022-09-20T12:39:01.092Z,0.00
2022-09-20T12:41:29.141Z,0.10
2022-09-20T12:44:06.817Z,0.00
2022-09-20T12:46:44.297Z,0.00
2022-09-20T12:49:52.717Z,0.03
2022-09-20T12:52:49.158Z,0.00
2022-09-20T12:55:55.046Z,0.00
2022-09-20T12:58:33.892Z,0.00
2022-09-20T13:01:03.922Z,0.00
2022-09-20T13:03:38.864Z,0.00
2022-09-20T13:06:15.581Z,0.00
2022-09-20T13:09:01.463Z,0.00
2022-09-20T13:11:43.891Z,0.00
2022-09-20T13:14:18.880Z,0.05
2022-09-20T13:16:59.729Z,0.00
2022-09-20T13:19:51.207Z,0.00
2022-09-20T13:22:37.029Z,0.00
2022-09-20T13:25:05.940Z,0.00
2022-09-20T13:27:45.160Z,0.00
2022-09-20T13:30:17.725Z,0.10
2022-09-20T13:32:44.898Z,0.10
2022-09-20T13:35:16.878Z,0.00
2022-09-20T13:37:50.449Z,0.10
2022-09-20T13:40:36.754Z,0.00
2022-09-20T13:43:26.941Z,0.00
2022-09-20T13:45:57.655Z,0.00
2022-09-20T13:48:28.692Z,0.10
2022-09-20T13:50:56.097Z,0.03
2022-09-20T13:53:40.645Z,0.00
2022-09-20T13:56:28.490Z,0.10
2022-09-20T13:58:58.765Z,0.03
2022-09-20T14:01:33.951Z,0.00
2022-09-20T14:04:07.229Z,0.00
2022-09-20T14:06:34.244Z,0.00
2022-09-20T14:09:04.234Z,0.10
2022-09-20T14:11:33.998Z,0.00
2022-09-20T14:14:02.128Z,0.00
2022-09-20T14:16:38.282Z,0.00
2022-09-20T14:19:05.388Z,0.15
2022-09-20T14:21:32.922Z,0.00
2022-09-20T14:24:07.559Z,0.00
2022-09-20T14:26:38.250Z,0.00
2022-09-20T14:29:37.482Z,0.00
2022-09-20T14:32:19.558Z,0.00
2022-09-20T14:35:16.767Z,0.00
2022-09-20T14:37:45.812Z,0.00
2022-09-20T14:40:28.848Z,0.00
2022-09-20T14:42:59.962Z,0.00
2022-09-20T14:45:35.034Z,0.00
2022-09-20T14:48:11.063Z,0.00
2022-09-20T14:50:45.496Z,0.00
2022-09-20T14:53:12.378Z,0.00
2022-09-20T14:56:15.123Z,0.00
2022-09-20T14:59:23.578Z,0.00
2022-09-20T15:01:59.868Z,0.00
2022-09-20T15:04:28.033Z,0.00
2022-09-20T15:06:56.168Z,0.00
2022-09-20T15:09:23.226Z,0.00
2022-09-20T15:12:03.780Z,0.00
2022-09-20T15:14:35.061Z,0.00
2022-09-20T15:17:04.419Z,0.10
2022-09-20T15:19:31.371Z,0.00
2022-09-20T15:21:59.656Z,0.00
2022-09-20T15:24:26.929Z,0.00
2022-09-20T15:26:54.168Z,0.00
2022-09-20T15:29:21.916Z,0.10
2022-09-20T15:31:49.162Z,0.00
2022-09-20T15:34:16.321Z,0.00
2022-09-20T15:36:43.355Z,0.00
2022-09-20T15:39:10.473Z,0.10
2022-09-20T15:41:37.703Z,0.10
2022-09-20T15:44:06.630Z,0.10
2022-09-20T15:46:33.999Z,0.10
2022-09-20T15:49:26.692Z,0.00
2022-09-20T15:51:54.937Z,0.00
2022-09-20T15:54:22.973Z,0.10
2022-09-20T15:56:54.131Z,0.00
2022-09-20T15:59:23.501Z,0.00
2022-09-20T16:01:51.908Z,0.00
2022-09-20T16:04:19.517Z,0.03
2022-09-20T16:06:49.320Z,0.55
2022-09-20T16:09:16.387Z,0.00
2022-09-20T16:11:43.576Z,0.00
2022-09-20T16:14:10.541Z,0.00
2022-09-20T16:16:40.445Z,0.00
2022-09-20T16:19:22.644Z,0.03
2022-09-20T16:21:56.613Z,3.63
2022-09-20T16:24:28.883Z,0.47
2022-09-20T16:26:56.276Z,0.05
2022-09-20T16:29:26.194Z,0.10
2022-09-20T16:31:55.979Z,0.40
2022-09-20T16:34:33.667Z,0.00
2022-09-20T16:37:03.688Z,0.00
2022-09-20T16:39:31.085Z,0.10
2022-09-20T16:42:05.622Z,0.10
2022-09-20T16:44:34.602Z,0.10
2022-09-20T16:47:02.463Z,0.10
2022-09-20T16:49:29.872Z,0.00
2022-09-20T16:51:57.101Z,0.00
2022-09-20T16:54:27.380Z,0.00
2022-09-20T16:56:56.812Z,0.00
2022-09-20T16:59:24.140Z,0.00
2022-09-20T17:01:51.471Z,0.10
2022-09-20T17:04:19.060Z,0.10
2022-09-20T17:06:46.228Z,0.00
2022-09-20T17:09:13.654Z,0.10
2022-09-20T17:11:43.638Z,0.10
2022-09-20T17:14:10.604Z,0.10
2022-09-20T17:16:39.302Z,0.13
2022-09-20T17:19:08.971Z,0.10
2022-09-20T17:21:38.092Z,0.10
2022-09-20T17:24:06.976Z,0.13
2022-09-20T17:26:37.332Z,0.00
2022-09-20T17:29:06.608Z,0.00
2022-09-20T17:31:35.402Z,0.10
2022-09-20T17:34:07.246Z,0.10
2022-09-20T17:36:37.238Z,0.30
2022-09-20T17:39:04.878Z,0.10
2022-09-20T17:41:32.899Z,0.10
2022-09-20T17:44:00.666Z,0.00
2022-09-20T17:46:31.811Z,0.10
2022-09-20T17:49:01.097Z,0.05
2022-09-20T17:51:41.726Z,0.10
2022-09-20T17:54:09.039Z,0.10
2022-09-20T17:56:36.253Z,0.00
2022-09-20T17:59:04.088Z,0.20
2022-09-20T18:01:32.630Z,0.10
2022-09-20T18:04:00.489Z,0.10
2022-09-20T18:06:35.434Z,0.10
2022-09-20T18:09:07.030Z,0.10
2022-09-20T18:11:39.008Z,0.13
2022-09-20T18:14:06.986Z,0.20
2022-09-20T18:16:34.984Z,0.10
2022-09-20T18:19:04.732Z,0.40
2022-09-20T18:21:33.457Z,0.20
2022-09-20T18:24:01.048Z,0.20
2022-09-20T18:26:30.263Z,0.20
2022-09-20T18:28:58.082Z,0.10
2022-09-20T18:31:27.193Z,0.68
2022-09-20T18:33:55.291Z,0.10
2022-09-20T18:36:24.081Z,0.10
2022-09-20T18:38:54.709Z,0.10
2022-09-20T18:41:23.946Z,0.10
2022-09-20T18:43:51.532Z,0.20
2022-09-20T18:46:23.553Z,0.13
2022-09-20T18:49:02.555Z,0.10
2022-09-20T18:51:34.768Z,0.17
2022-09-20T18:54:04.324Z,0.20
2022-09-20T18:56:33.004Z,0.17
2022-09-20T18:59:01.858Z,0.20
2022-09-20T19:01:41.272Z,0.20
2022-09-20T19:04:26.891Z,0.20
2022-09-20T19:07:12.715Z,0.60
2022-09-20T19:09:45.731Z,0.20
2022-09-20T19:12:28.053Z,0.20
2022-09-20T19:15:13.927Z,0.10
2022-09-20T19:18:08.254Z,0.30
2022-09-20T19:20:46.023Z,0.30
2022-09-20T19:23:37.909Z,0.50
2022-09-20T19:26:41.324Z,0.20
2022-09-20T19:29:22.959Z,0.25
2022-09-20T19:31:55.439Z,0.47
2022-09-20T19:34:23.993Z,0.32
2022-09-20T19:37:12.345Z,0.40
2022-09-20T19:40:08.909Z,0.52
2022-09-20T19:42:54.735Z,0.10
2022-09-20T19:45:31.506Z,0.20
2022-09-20T19:48:13.346Z,0.20
2022-09-20T19:50:46.372Z,0.13
2022-09-20T19:53:19.739Z,0.20
2022-09-20T19:55:50.284Z,0.20
2022-09-20T19:58:21.737Z,0.20
2022-09-20T20:00:59.532Z,0.20
2022-09-20T20:03:29.912Z,0.10
2022-09-20T20:06:11.866Z,0.10
2022-09-20T20:09:04.510Z,0.40
2022-09-20T20:11:43.716Z,0.10
2022-09-20T20:14:31.092Z,0.20
2022-09-20T20:17:38.661Z,0.10
2022-09-20T20:20:24.088Z,0.25
2022-09-20T20:23:16.770Z,0.30
2022-09-20T20:26:06.434Z,0.28
2022-09-20T20:28:41.232Z,0.30
2022-09-20T20:31:12.757Z,0.35
2022-09-20T20:33:43.362Z,0.82
2022-09-20T20:36:12.411Z,0.40
2022-09-20T20:38:40.716Z,0.30
2022-09-20T20:41:15.004Z,0.40
2022-09-20T20:43:45.756Z,0.40
2022-09-20T20:46:18.500Z,0.25
2022-09-20T20:48:47.386Z,0.13
2022-09-20T20:51:16.121Z,0.30
2022-09-20T20:53:53.646Z,0.35
2022-09-20T20:56:30.009Z,0.20
2022-09-20T20:59:07.465Z,0.35
2022-09-20T21:01:36.720Z,0.30
2022-09-20T21:04:04.376Z,0.30
2022-09-20T21:06:32.572Z,0.93
2022-09-20T21:09:00.423Z,0.30
2022-09-20T21:11:34.129Z,0.20
2022-09-20T21:14:02.044Z,0.20
2022-09-20T21:16:30.601Z,0.60
2022-09-20T21:18:59.500Z,0.55
2022-09-20T21:21:34.983Z,0.65
2022-09-20T21:24:03.915Z,0.70
2022-09-20T21:26:36.158Z,0.20
2022-09-20T21:29:05.233Z,0.40
2022-09-20T21:31:37.338Z,0.30
2022-09-20T21:34:08.087Z,0.20
2022-09-20T21:36:35.919Z,0.40
2022-09-20T21:39:06.379Z,0.47
2022-09-20T21:41:34.878Z,0.55
2022-09-20T21:44:02.854Z,0.20
2022-09-20T21:46:40.081Z,0.38
2022-09-20T21:49:08.696Z,0.30
2022-09-20T21:51:36.121Z,0.40
2022-09-20T21:54:06.778Z,0.20
2022-09-20T21:56:35.346Z,0.40
2022-09-20T21:59:04.101Z,0.38
2022-09-20T22:01:34.962Z,0.47
2022-09-20T22:04:10.499Z,0.40
2022-09-20T22:06:42.678Z,0.45
2022-09-20T22:09:17.835Z,0.43
2022-09-20T22:11:48.613Z,0.45
2022-09-20T22:14:17.388Z,0.38
2022-09-20T22:16:44.918Z,0.30
2022-09-20T22:19:13.913Z,0.40
2022-09-20T22:21:42.402Z,0.80
2022-09-20T22:24:10.548Z,1.23
2022-09-20T22:26:40.453Z,0.68
2022-09-20T22:29:07.861Z,0.47
2022-09-20T22:31:45.761Z,0.80
2022-09-20T22:34:17.973Z,0.55
2022-09-20T22:36:45.121Z,0.40
2022-09-20T22:39:12.505Z,0.82
2022-09-20T22:41:41.183Z,0.43
2022-09-20T22:44:08.658Z,0.45
2022-09-20T22:46:35.766Z,0.70
2022-09-20T22:49:05.740Z,0.80
2022-09-20T22:51:33.414Z,0.90
2022-09-20T22:54:01.299Z,0.90
2022-09-20T22:56:29.416Z,0.95
2022-09-20T22:59:03.087Z,0.70
2022-09-20T23:01:31.866Z,0.47
2022-09-20T23:04:07.776Z,0.50
2022-09-20T23:06:49.682Z,0.50
2022-09-20T23:09:17.846Z,0.40
2022-09-20T23:11:45.268Z,0.60
2022-09-20T23:14:14.004Z,0.45
2022-09-20T23:16:42.402Z,0.40
2022-09-20T23:19:09.531Z,0.73
2022-09-20T23:21:40.244Z,0.32
2022-09-20T23:24:10.052Z,0.35
2022-09-20T23:26:37.750Z,0.93
2022-09-20T23:29:07.754Z,0.63
2022-09-20T23:31:36.518Z,0.60
2022-09-20T23:34:04.822Z,0.88
2022-09-20T23:36:33.173Z,0.55
2022-09-20T23:39:00.182Z,1.05
2022-09-20T23:41:27.459Z,1.00
2022-09-20T23:43:54.451Z,0.77
2022-09-20T23:46:22.143Z,0.52
2022-09-20T23:48:50.399Z,0.60
2022-09-20T23:51:22.670Z,0.63
2022-09-20T23:53:50.425Z,0.20
2022-09-20T23:56:17.549Z,0.45
2022-09-20T23:58:45.047Z,0.45
